createdAt,value
2022-11-09T00:00:05.668Z,101898.03
2022-11-09T00:03:08.381Z,101905.84
2022-11-09T00:06:12.454Z,101895.78
2022-11-09T00:09:23.666Z,101898.03
2022-11-09T00:12:29.547Z,101910.94
2022-11-09T00:15:31.809Z,101901.13
2022-11-09T00:18:39.519Z,101895.44
2022-11-09T00:21:43.402Z,101880.84
2022-11-09T00:24:46.865Z,101883.53
2022-11-09T00:27:48.966Z,101895.16
2022-11-09T00:30:51.330Z,101895.84
2022-11-09T00:33:56.374Z,101891.44
2022-11-09T00:36:58.511Z,101876.84
2022-11-09T00:40:00.801Z,101890.75
2022-11-09T00:43:03.124Z,101885.63
2022-11-09T00:46:09.534Z,101876.72
2022-11-09T00:49:12.108Z,101879.78
2022-11-09T00:52:14.262Z,101881.06
2022-11-09T00:55:16.965Z,101877.09
2022-11-09T00:58:19.052Z,101861.91
2022-11-09T01:01:21.768Z,101869.63
2022-11-09T01:04:26.398Z,101888.19
2022-11-09T01:07:29.700Z,101883.13
2022-11-09T01:10:32.405Z,101876.84
2022-11-09T01:13:35.377Z,101869.94
2022-11-09T01:16:39.576Z,101882.69
2022-11-09T01:19:41.796Z,101862.41
2022-11-09T01:22:43.985Z,101857.56
2022-11-09T01:25:48.296Z,101869.09
2022-11-09T01:28:52.179Z,101870.31
2022-11-09T01:32:01.625Z,101853.47
2022-11-09T01:35:05.565Z,101870.31
2022-11-09T01:38:09.647Z,101838.44
2022-11-09T01:41:20.346Z,101859.53
2022-11-09T01:44:22.793Z,101863.25
2022-11-09T01:47:26.677Z,101844.72
2022-11-09T01:50:55.962Z,101863.25
2022-11-09T01:54:06.248Z,101867.69
2022-11-09T01:57:16.330Z,101863.44
2022-11-09T02:00:19.143Z,101856.34
2022-11-09T02:03:27.857Z,101848.44
2022-11-09T02:06:33.416Z,101850.41
2022-11-09T02:09:50.257Z,101844.63
2022-11-09T02:12:54.639Z,101851.25
2022-11-09T02:15:56.879Z,101843.44
2022-11-09T02:19:02.036Z,101844.75
2022-11-09T02:22:06.087Z,101855.81
2022-11-09T02:25:14.801Z,101833.13
2022-11-09T02:28:17.984Z,101846.88
2022-11-09T02:31:49.544Z,101858.50
2022-11-09T02:34:51.818Z,101850.84
2022-11-09T02:37:56.101Z,101859.06
2022-11-09T02:40:59.646Z,101860.63
2022-11-09T02:44:03.679Z,101871.00
2022-11-09T02:47:06.521Z,101869.03
2022-11-09T02:50:09.270Z,101864.34
2022-11-09T02:53:11.728Z,101877.50
2022-11-09T02:56:18.553Z,101894.84
2022-11-09T02:59:20.636Z,101841.09
2022-11-09T03:02:23.232Z,101844.38
2022-11-09T03:05:26.865Z,101874.41
2022-11-09T03:08:31.115Z,101847.78
2022-11-09T03:11:33.342Z,101866.03
2022-11-09T03:14:35.954Z,101855.25
2022-11-09T03:17:38.626Z,101869.69
2022-11-09T03:20:40.767Z,101875.81
2022-11-09T03:23:43.110Z,101868.56
2022-11-09T03:26:45.239Z,101879.91
2022-11-09T03:29:47.590Z,101861.50
2022-11-09T03:32:50.879Z,101871.41
2022-11-09T03:35:53.455Z,101867.31
2022-11-09T03:38:55.544Z,101860.34
2022-11-09T03:41:57.800Z,101866.16
2022-11-09T03:45:01.182Z,101873.28
2022-11-09T03:48:03.613Z,101871.28
2022-11-09T03:51:05.815Z,101865.50
2022-11-09T03:54:08.131Z,101869.75
2022-11-09T03:57:10.553Z,101843.06
2022-11-09T04:00:17.006Z,101873.09
2022-11-09T04:03:19.466Z,101879.22
2022-11-09T04:06:21.759Z,101864.91
2022-11-09T04:09:24.110Z,101861.19
2022-11-09T04:12:26.280Z,101863.44
2022-11-09T04:15:28.600Z,101868.16
2022-11-09T04:18:30.648Z,101869.56
2022-11-09T04:21:34.378Z,101884.06
2022-11-09T04:24:39.326Z,101879.50
2022-11-09T04:31:02.677Z,101890.78
2022-11-09T04:34:04.806Z,101891.56
2022-11-09T04:37:17.631Z,101883.31
2022-11-09T04:40:21.089Z,101903.41
2022-11-09T04:43:23.411Z,101885.97
2022-11-09T04:49:44.767Z,101890.16
2022-11-09T04:52:47.171Z,101898.03
2022-11-09T04:55:55.473Z,101900.00
2022-11-09T04:58:58.742Z,101900.81
2022-11-09T05:02:02.848Z,101900.66
2022-11-09T05:05:05.433Z,101897.69
2022-11-09T05:08:11.416Z,101897.06
2022-11-09T05:11:17.594Z,101914.97
2022-11-09T05:14:28.371Z,101913.44
2022-11-09T05:17:32.508Z,101916.69
2022-11-09T05:20:36.555Z,101918.19
2022-11-09T05:23:58.501Z,101915.38
2022-11-09T05:27:09.339Z,101924.19
2022-11-09T05:30:19.835Z,101925.91
2022-11-09T05:33:22.300Z,101924.19
2022-11-09T05:39:47.218Z,101932.78
2022-11-09T05:52:38.915Z,101944.31
2022-11-09T05:55:49.561Z,101940.78
2022-11-09T05:58:52.043Z,101946.56
2022-11-09T06:05:12.616Z,101954.53
2022-11-09T06:08:16.362Z,101957.97
2022-11-09T06:11:23.987Z,101960.59
2022-11-09T06:14:26.407Z,101965.06
2022-11-09T06:20:44.420Z,101956.63
2022-11-09T06:23:46.510Z,101948.31
2022-11-09T06:26:49.626Z,101940.66
2022-11-09T06:29:51.626Z,101941.31
2022-11-09T06:32:59.235Z,101944.75
2022-11-09T06:36:02.446Z,101917.44
2022-11-09T06:39:04.787Z,101938.94
2022-11-09T06:42:07.633Z,101940.88
2022-11-09T06:45:10.341Z,101942.13
2022-11-09T06:48:12.621Z,101939.56
2022-11-09T06:51:14.778Z,101929.47
2022-11-09T06:54:16.888Z,101917.44
2022-11-09T06:57:19.459Z,101931.66
2022-11-09T07:00:22.949Z,101933.00
2022-11-09T07:03:25.353Z,101932.09
2022-11-09T07:06:27.438Z,101935.94
2022-11-09T07:09:29.679Z,101922.72
2022-11-09T07:12:37.924Z,101917.91
2022-11-09T07:18:57.583Z,101928.66
2022-11-09T07:21:59.802Z,101915.25
2022-11-09T07:25:01.939Z,101931.72
2022-11-09T07:28:09.434Z,101928.50
2022-11-09T07:44:43.153Z,101921.72
2022-11-09T07:47:45.776Z,101920.00
2022-11-09T07:50:58.965Z,101921.22
2022-11-09T08:53:58.734Z,101940.16
2022-11-09T08:57:00.861Z,101927.44
2022-11-09T09:03:22.321Z,101933.47
2022-11-09T09:06:30.857Z,101939.91
2022-11-09T09:09:33.896Z,101923.31
2022-11-09T09:12:38.055Z,101938.88
2022-11-09T09:15:40.176Z,101936.69
2022-11-09T09:18:42.431Z,101935.75
2022-11-09T09:21:46.694Z,101940.22
2022-11-09T09:24:48.948Z,101931.25
2022-11-09T09:27:51.842Z,101933.06
2022-11-09T09:30:54.357Z,101928.53
2022-11-09T09:33:56.624Z,101933.28
2022-11-09T09:37:00.884Z,101926.84
2022-11-09T09:40:03.325Z,101924.78
2022-11-09T09:43:06.692Z,101928.69
2022-11-09T09:46:47.833Z,101930.03
2022-11-09T09:53:27.313Z,101919.50
2022-11-09T10:16:33.186Z,101899.75
2022-11-09T10:23:52.915Z,101894.84
2022-11-09T10:26:57.935Z,101874.03
2022-11-09T10:30:02.274Z,101878.63
2022-11-09T10:33:17.191Z,101872.50
2022-11-09T10:36:37.789Z,101866.78
2022-11-09T10:39:47.274Z,101857.19
2022-11-09T10:43:13.601Z,101865.22
2022-11-09T10:47:03.253Z,101856.59
2022-11-09T10:50:35.065Z,101847.16
2022-11-09T10:54:26.114Z,101841.34
2022-11-09T10:57:55.145Z,101845.16
2022-11-09T11:01:20.097Z,101834.13
2022-11-09T11:04:41.138Z,101827.22
2022-11-09T11:12:23.136Z,101811.41
2022-11-09T11:15:46.587Z,101821.97
2022-11-09T11:27:14.611Z,101808.44
2022-11-09T13:30:27.520Z,101788.34
2022-11-09T13:33:50.456Z,101756.75
2022-11-09T13:50:06.827Z,101775.38
2022-11-09T14:49:07.292Z,101771.03
2022-11-09T14:56:33.139Z,101765.47
2022-11-09T14:59:55.681Z,101758.41
2022-11-09T16:02:02.966Z,101795.69
2022-11-09T16:27:43.383Z,101760.63
2022-11-09T16:31:00.522Z,101774.66
2022-11-09T16:38:01.340Z,101767.13
2022-11-09T16:41:22.943Z,101776.75
2022-11-09T16:44:45.934Z,101777.16
2022-11-09T16:48:15.175Z,101775.00
2022-11-09T16:51:39.321Z,101779.72
2022-11-09T16:55:06.088Z,101776.72
2022-11-09T16:58:29.269Z,101779.28
2022-11-09T17:01:57.727Z,101772.91
2022-11-09T17:05:21.831Z,101776.50
2022-11-09T17:08:42.746Z,101772.84
2022-11-09T17:12:03.808Z,101773.41
2022-11-09T17:15:26.414Z,101770.38
2022-11-09T17:18:48.083Z,101772.63
2022-11-09T17:22:08.521Z,101761.25
2022-11-09T17:25:30.251Z,101778.94
2022-11-09T17:28:51.506Z,101774.84
2022-11-09T17:32:12.478Z,101775.03
2022-11-09T17:35:36.791Z,101773.00
2022-11-09T17:38:58.795Z,101770.47
2022-11-09T17:42:19.290Z,101766.91
2022-11-09T17:45:40.641Z,101780.47
2022-11-09T17:49:04.543Z,101771.66
2022-11-09T17:52:28.263Z,101769.28
2022-11-09T17:55:50.186Z,101772.81
2022-11-09T17:59:12.203Z,101773.84
2022-11-09T18:02:35.351Z,101752.63
2022-11-09T18:05:56.307Z,101776.06
2022-11-09T18:09:40.192Z,101766.19
2022-11-09T18:12:58.283Z,101766.56
2022-11-09T18:16:22.061Z,101764.84
2022-11-09T18:19:43.077Z,101762.44
2022-11-09T18:23:03.895Z,101762.09
2022-11-09T18:26:24.696Z,101758.34
2022-11-09T18:29:45.860Z,101755.00
2022-11-09T18:33:06.468Z,101768.09
2022-11-09T18:36:28.067Z,101765.53
2022-11-09T18:39:48.489Z,101762.28
2022-11-09T18:43:09.245Z,101733.13
2022-11-09T18:46:33.216Z,101766.50
2022-11-09T18:49:54.193Z,101757.69
2022-11-09T18:53:14.795Z,101766.50
2022-11-09T18:56:35.527Z,101760.91
2022-11-09T18:59:56.125Z,101751.94
2022-11-09T19:03:17.031Z,101754.66
2022-11-09T19:06:37.857Z,101766.38
2022-11-09T19:09:58.302Z,101772.00
2022-11-09T19:13:21.401Z,101775.72
2022-11-09T19:16:41.948Z,101764.72
2022-11-09T19:20:02.869Z,101776.22
2022-11-09T19:23:23.361Z,101781.13
2022-11-09T19:30:20.804Z,101776.56
2022-11-09T19:33:42.108Z,101778.25
2022-11-09T19:37:03.550Z,101783.47
2022-11-09T19:40:26.113Z,101765.47
2022-11-09T19:43:52.130Z,101775.97
2022-11-09T19:47:17.628Z,101791.41
2022-11-09T19:50:38.983Z,101781.06
2022-11-09T19:57:38.693Z,101771.53
2022-11-09T20:04:47.792Z,101765.47
2022-11-09T20:08:18.697Z,101768.69
2022-11-09T20:11:58.274Z,101769.56
2022-11-09T20:15:19.597Z,101770.97
2022-11-09T20:22:25.659Z,101766.75
2022-11-09T20:25:46.063Z,101768.09
2022-11-09T20:29:06.711Z,101751.81
2022-11-09T20:32:28.630Z,101732.00
2022-11-09T20:35:53.718Z,101759.09
2022-11-09T20:39:14.323Z,101741.97
2022-11-09T20:42:43.220Z,101742.16
2022-11-09T20:53:21.634Z,101752.28
2022-11-09T20:56:43.056Z,101741.69
2022-11-09T21:00:06.625Z,101733.59
2022-11-09T21:03:30.282Z,101709.69
2022-11-09T21:06:51.601Z,101723.88
2022-11-09T21:10:35.619Z,101725.94
2022-11-09T21:14:00.656Z,101739.47
2022-11-09T21:17:26.837Z,101740.56
2022-11-09T21:20:54.589Z,101740.94
2022-11-09T21:24:41.328Z,101720.19
2022-11-09T21:28:24.043Z,101735.81
2022-11-09T21:31:45.182Z,101734.38
2022-11-09T21:35:09.755Z,101746.09
2022-11-09T21:38:34.207Z,101739.88
2022-11-09T21:41:54.747Z,101714.19
2022-11-09T21:45:15.772Z,101725.19
2022-11-09T21:48:36.533Z,101740.63
2022-11-09T21:52:18.679Z,101734.53
2022-11-09T21:55:41.212Z,101734.75
2022-11-09T21:59:03.686Z,101746.78
2022-11-09T22:02:24.422Z,101722.03
2022-11-09T22:05:47.673Z,101721.56
2022-11-09T22:09:14.239Z,101724.16
2022-11-09T22:12:57.651Z,101700.47
2022-11-09T22:16:23.048Z,101734.00
2022-11-09T22:20:03.612Z,101724.53
2022-11-09T22:23:27.091Z,101717.75
2022-11-09T22:26:48.287Z,101695.72
2022-11-09T22:30:11.538Z,101706.94
2022-11-09T22:33:34.132Z,101723.41
2022-11-09T22:36:55.233Z,101718.16
2022-11-09T22:40:16.040Z,101732.72
2022-11-09T22:43:41.817Z,101714.59
2022-11-09T22:47:05.538Z,101691.75
2022-11-09T22:50:27.944Z,101715.31
2022-11-09T22:53:51.169Z,101727.53
2022-11-09T22:57:15.776Z,101714.81
2022-11-09T23:00:36.387Z,101700.59
2022-11-09T23:03:57.200Z,101715.31
2022-11-09T23:07:18.858Z,101728.19
2022-11-09T23:10:40.892Z,101713.97
2022-11-09T23:14:02.019Z,101724.69
2022-11-09T23:17:42.133Z,101714.84
2022-11-09T23:21:03.473Z,101708.59
2022-11-09T23:24:42.792Z,101716.38
2022-11-09T23:28:05.034Z,101724.50
2022-11-09T23:31:28.428Z,101729.59
2022-11-09T23:34:51.258Z,101723.66
2022-11-09T23:38:13.383Z,101729.94
2022-11-09T23:41:35.105Z,101719.63
2022-11-09T23:44:56.573Z,101721.31
2022-11-09T23:48:19.607Z,101723.69
2022-11-09T23:51:41.130Z,101727.91
2022-11-09T23:55:01.613Z,101720.13
2022-11-09T23:58:22.183Z,101750.31
